sensor_id;sensor_type;location;lat;lon;timestamp;temperature;humidity
14749;DHT22;7466;53.574;9.976;2022-12-11T00:02:10;-1.70;99.90
14749;DHT22;7466;53.574;9.976;2022-12-11T00:04:36;-1.70;99.90
14749;DHT22;7466;53.574;9.976;2022-12-11T00:07:04;-1.60;99.90
14749;DHT22;7466;53.574;9.976;2022-12-11T00:09:32;-1.60;99.90
14749;DHT22;7466;53.574;9.976;2022-12-11T00:11:59;-1.60;99.90
14749;DHT22;7466;53.574;9.976;2022-12-11T00:14:27;-1.60;99.90
14749;DHT22;7466;53.574;9.976;2022-12-11T00:16:54;-1.70;99.90
14749;DHT22;7466;53.574;9.976;2022-12-11T00:19:24;-1.80;99.90
14749;DHT22;7466;53.574;9.976;2022-12-11T00:21:50;-1.80;99.90
14749;DHT22;7466;53.574;9.976;2022-12-11T00:24:17;-1.90;99.90
14749;DHT22;7466;53.574;9.976;2022-12-11T00:26:45;-1.90;99.90
14749;DHT22;7466;53.574;9.976;2022-12-11T00:29:12;-1.80;99.90
14749;DHT22;7466;53.574;9.976;2022-12-11T00:31:40;-1.80;99.90
14749;DHT22;7466;53.574;9.976;2022-12-11T00:34:07;-1.80;99.90
14749;DHT22;7466;53.574;9.976;2022-12-11T00:36:34;-1.80;99.90
14749;DHT22;7466;53.574;9.976;2022-12-11T00:39:02;-1.80;99.90
14749;DHT22;7466;53.574;9.976;2022-12-11T00:41:29;-1.80;99.90
14749;DHT22;7466;53.574;9.976;2022-12-11T00:43:57;-1.80;99.90
14749;DHT22;7466;53.574;9.976;2022-12-11T00:46:24;-1.70;99.90
14749;DHT22;7466;53.574;9.976;2022-12-11T00:48:51;-1.70;99.90
14749;DHT22;7466;53.574;9.976;2022-12-11T00:51:18;-1.70;99.90
14749;DHT22;7466;53.574;9.976;2022-12-11T00:53:45;-1.70;99.90
14749;DHT22;7466;53.574;9.976;2022-12-11T00:56:13;-1.70;99.90
14749;DHT22;7466;53.574;9.976;2022-12-11T00:58:40;-1.70;99.90
14749;DHT22;7466;53.574;9.976;2022-12-11T01:01:10;-1.60;99.90
14749;DHT22;7466;53.574;9.976;2022-12-11T01:03:38;-1.60;99.90
14749;DHT22;7466;53.574;9.976;2022-12-11T01:06:05;-1.60;99.90
14749;DHT22;7466;53.574;9.976;2022-12-11T01:08:32;-1.60;99.90
14749;DHT22;7466;53.574;9.976;2022-12-11T01:11:03;-1.70;99.90
14749;DHT22;7466;53.574;9.976;2022-12-11T01:13:29;-1.70;99.90
14749;DHT22;7466;53.574;9.976;2022-12-11T01:15:56;-1.70;99.90
14749;DHT22;7466;53.574;9.976;2022-12-11T01:18:24;-1.70;99.90
14749;DHT22;7466;53.574;9.976;2022-12-11T01:20:52;-1.70;99.90
14749;DHT22;7466;53.574;9.976;2022-12-11T01:23:19;-1.70;99.90
14749;DHT22;7466;53.574;9.976;2022-12-11T01:25:46;-1.70;99.90
14749;DHT22;7466;53.574;9.976;2022-12-11T01:28:12;-1.80;99.90
14749;DHT22;7466;53.574;9.976;2022-12-11T01:30:40;-1.70;99.90
14749;DHT22;7466;53.574;9.976;2022-12-11T01:33:08;-1.80;99.90
14749;DHT22;7466;53.574;9.976;2022-12-11T01:35:39;-1.70;99.90
14749;DHT22;7466;53.574;9.976;2022-12-11T01:38:06;-1.70;99.90
14749;DHT22;7466;53.574;9.976;2022-12-11T01:40:32;-1.70;99.90
14749;DHT22;7466;53.574;9.976;2022-12-11T01:42:59;-1.70;99.90
14749;DHT22;7466;53.574;9.976;2022-12-11T01:45:39;-1.70;99.90
14749;DHT22;7466;53.574;9.976;2022-12-11T01:48:09;-1.70;99.90
14749;DHT22;7466;53.574;9.976;2022-12-11T01:50:43;-1.60;99.90
14749;DHT22;7466;53.574;9.976;2022-12-11T01:53:19;-1.60;99.90
14749;DHT22;7466;53.574;9.976;2022-12-11T01:55:47;-1.60;99.90
14749;DHT22;7466;53.574;9.976;2022-12-11T01:58:16;-1.60;99.90
14749;DHT22;7466;53.574;9.976;2022-12-11T02:00:43;-1.60;99.90
14749;DHT22;7466;53.574;9.976;2022-12-11T02:03:10;-1.60;99.90
14749;DHT22;7466;53.574;9.976;2022-12-11T02:05:37;-1.60;99.90
14749;DHT22;7466;53.574;9.976;2022-12-11T02:08:06;-1.70;99.90
14749;DHT22;7466;53.574;9.976;2022-12-11T02:10:43;-1.70;99.90
14749;DHT22;7466;53.574;9.976;2022-12-11T02:13:15;-1.70;99.90
14749;DHT22;7466;53.574;9.976;2022-12-11T02:15:50;-1.70;99.90
14749;DHT22;7466;53.574;9.976;2022-12-11T02:18:27;-1.70;99.90
14749;DHT22;7466;53.574;9.976;2022-12-11T02:21:03;-1.70;99.90
14749;DHT22;7466;53.574;9.976;2022-12-11T02:26:56;-1.70;99.90
14749;DHT22;7466;53.574;9.976;2022-12-11T02:29:29;-1.70;99.90
14749;DHT22;7466;53.574;9.976;2022-12-11T02:32:02;-1.70;99.90
14749;DHT22;7466;53.574;9.976;2022-12-11T02:34:33;-1.70;99.90
14749;DHT22;7466;53.574;9.976;2022-12-11T02:37:05;-1.80;99.90
14749;DHT22;7466;53.574;9.976;2022-12-11T02:39:39;-1.80;99.90
14749;DHT22;7466;53.574;9.976;2022-12-11T02:42:08;-1.80;99.90
14749;DHT22;7466;53.574;9.976;2022-12-11T02:44:39;-1.80;99.90
14749;DHT22;7466;53.574;9.976;2022-12-11T02:47:10;-1.80;99.90
14749;DHT22;7466;53.574;9.976;2022-12-11T02:49:39;-1.90;99.90
14749;DHT22;7466;53.574;9.976;2022-12-11T02:52:11;-1.90;99.90
14749;DHT22;7466;53.574;9.976;2022-12-11T02:54:39;-1.90;99.90
14749;DHT22;7466;53.574;9.976;2022-12-11T02:57:12;-1.90;99.90
14749;DHT22;7466;53.574;9.976;2022-12-11T02:59:43;-1.90;99.90
14749;DHT22;7466;53.574;9.976;2022-12-11T03:02:11;-1.90;99.90
14749;DHT22;7466;53.574;9.976;2022-12-11T03:04:38;-1.90;99.90
14749;DHT22;7466;53.574;9.976;2022-12-11T03:07:07;-2.00;99.90
14749;DHT22;7466;53.574;9.976;2022-12-11T03:09:38;-2.00;99.90
14749;DHT22;7466;53.574;9.976;2022-12-11T03:12:08;-2.10;99.90
14749;DHT22;7466;53.574;9.976;2022-12-11T03:14:37;-2.10;99.90
14749;DHT22;7466;53.574;9.976;2022-12-11T03:17:11;-2.10;99.90
14749;DHT22;7466;53.574;9.976;2022-12-11T03:19:46;-2.00;99.90
14749;DHT22;7466;53.574;9.976;2022-12-11T03:22:17;-2.00;99.90
14749;DHT22;7466;53.574;9.976;2022-12-11T03:24:50;-2.00;99.90
14749;DHT22;7466;53.574;9.976;2022-12-11T03:27:25;-2.00;99.90
14749;DHT22;7466;53.574;9.976;2022-12-11T03:29:58;-2.10;99.90
14749;DHT22;7466;53.574;9.976;2022-12-11T03:32:30;-2.00;99.90
14749;DHT22;7466;53.574;9.976;2022-12-11T03:35:02;-2.00;99.90
14749;DHT22;7466;53.574;9.976;2022-12-11T03:37:34;-2.10;99.90
14749;DHT22;7466;53.574;9.976;2022-12-11T03:40:05;-2.00;99.90
14749;DHT22;7466;53.574;9.976;2022-12-11T03:42:36;-2.00;99.90
14749;DHT22;7466;53.574;9.976;2022-12-11T03:45:08;-2.00;99.90
14749;DHT22;7466;53.574;9.976;2022-12-11T03:47:37;-2.00;99.90
14749;DHT22;7466;53.574;9.976;2022-12-11T03:50:07;-2.00;99.90
14749;DHT22;7466;53.574;9.976;2022-12-11T03:52:36;-2.00;99.90
14749;DHT22;7466;53.574;9.976;2022-12-11T03:55:06;-2.00;99.90
14749;DHT22;7466;53.574;9.976;2022-12-11T03:57:35;-2.00;99.90
14749;DHT22;7466;53.574;9.976;2022-12-11T04:00:05;-2.00;99.90
14749;DHT22;7466;53.574;9.976;2022-12-11T04:02:32;-2.00;99.90
14749;DHT22;7466;53.574;9.976;2022-12-11T04:05:00;-2.00;99.90
14749;DHT22;7466;53.574;9.976;2022-12-11T04:07:27;-2.00;99.90
14749;DHT22;7466;53.574;9.976;2022-12-11T04:09:55;-2.00;99.90
14749;DHT22;7466;53.574;9.976;2022-12-11T04:12:22;-2.00;99.90
14749;DHT22;7466;53.574;9.976;2022-12-11T04:14:49;-2.00;99.90
14749;DHT22;7466;53.574;9.976;2022-12-11T04:17:28;-2.00;99.90
14749;DHT22;7466;53.574;9.976;2022-12-11T04:20:14;-2.00;99.90
14749;DHT22;7466;53.574;9.976;2022-12-11T04:22:59;-2.00;99.90
14749;DHT22;7466;53.574;9.976;2022-12-11T04:25:43;-2.00;99.90
14749;DHT22;7466;53.574;9.976;2022-12-11T04:28:10;-2.00;99.90
14749;DHT22;7466;53.574;9.976;2022-12-11T04:30:49;-2.10;99.90
14749;DHT22;7466;53.574;9.976;2022-12-11T04:33:15;-2.10;99.90
14749;DHT22;7466;53.574;9.976;2022-12-11T04:35:43;-2.00;99.90
14749;DHT22;7466;53.574;9.976;2022-12-11T04:38:10;-2.00;99.90
14749;DHT22;7466;53.574;9.976;2022-12-11T04:40:37;-2.00;99.90
14749;DHT22;7466;53.574;9.976;2022-12-11T04:43:04;-2.00;99.90
14749;DHT22;7466;53.574;9.976;2022-12-11T04:45:31;-2.00;99.90
14749;DHT22;7466;53.574;9.976;2022-12-11T04:47:58;-2.00;99.90
14749;DHT22;7466;53.574;9.976;2022-12-11T04:50:25;-2.00;99.90
14749;DHT22;7466;53.574;9.976;2022-12-11T04:52:55;-2.00;99.90
14749;DHT22;7466;53.574;9.976;2022-12-11T04:55:22;-2.00;99.90
14749;DHT22;7466;53.574;9.976;2022-12-11T04:57:49;-2.00;99.90
14749;DHT22;7466;53.574;9.976;2022-12-11T05:00:16;-1.90;99.90
14749;DHT22;7466;53.574;9.976;2022-12-11T05:02:43;-1.90;99.90
14749;DHT22;7466;53.574;9.976;2022-12-11T05:05:10;-1.90;99.90
14749;DHT22;7466;53.574;9.976;2022-12-11T05:07:37;-2.00;99.90
14749;DHT22;7466;53.574;9.976;2022-12-11T05:10:07;-1.90;99.90
14749;DHT22;7466;53.574;9.976;2022-12-11T05:12:33;-1.90;99.90
14749;DHT22;7466;53.574;9.976;2022-12-11T05:15:01;-1.90;99.90
14749;DHT22;7466;53.574;9.976;2022-12-11T05:17:28;-1.90;99.90
14749;DHT22;7466;53.574;9.976;2022-12-11T05:19:55;-1.90;99.90
14749;DHT22;7466;53.574;9.976;2022-12-11T05:22:21;-1.90;99.90
14749;DHT22;7466;53.574;9.976;2022-12-11T05:24:48;-1.90;99.90
14749;DHT22;7466;53.574;9.976;2022-12-11T05:27:16;-1.90;99.90
14749;DHT22;7466;53.574;9.976;2022-12-11T05:29:43;-1.90;99.90
14749;DHT22;7466;53.574;9.976;2022-12-11T05:32:10;-1.80;99.90
14749;DHT22;7466;53.574;9.976;2022-12-11T05:34:36;-1.80;99.90
14749;DHT22;7466;53.574;9.976;2022-12-11T05:37:03;-1.80;99.90
14749;DHT22;7466;53.574;9.976;2022-12-11T05:39:30;-1.80;99.90
14749;DHT22;7466;53.574;9.976;2022-12-11T05:41:57;-1.80;99.90
14749;DHT22;7466;53.574;9.976;2022-12-11T05:44:26;-1.80;99.90
14749;DHT22;7466;53.574;9.976;2022-12-11T05:46:52;-1.80;99.90
14749;DHT22;7466;53.574;9.976;2022-12-11T05:49:19;-1.80;99.90
14749;DHT22;7466;53.574;9.976;2022-12-11T05:51:46;-1.80;99.90
14749;DHT22;7466;53.574;9.976;2022-12-11T05:54:13;-1.80;99.90
14749;DHT22;7466;53.574;9.976;2022-12-11T05:56:40;-1.80;99.90
14749;DHT22;7466;53.574;9.976;2022-12-11T05:59:07;-1.80;99.90
14749;DHT22;7466;53.574;9.976;2022-12-11T06:01:37;-1.80;99.90
14749;DHT22;7466;53.574;9.976;2022-12-11T06:04:07;-1.80;99.90
14749;DHT22;7466;53.574;9.976;2022-12-11T06:06:34;-1.80;99.90
14749;DHT22;7466;53.574;9.976;2022-12-11T06:09:03;-1.80;99.90
14749;DHT22;7466;53.574;9.976;2022-12-11T06:11:32;-1.90;99.90
14749;DHT22;7466;53.574;9.976;2022-12-11T06:14:00;-1.90;99.90
14749;DHT22;7466;53.574;9.976;2022-12-11T06:16:27;-2.00;99.90
14749;DHT22;7466;53.574;9.976;2022-12-11T06:18:55;-2.00;99.90
14749;DHT22;7466;53.574;9.976;2022-12-11T06:21:24;-2.10;99.90
14749;DHT22;7466;53.574;9.976;2022-12-11T06:23:53;-2.10;99.90
14749;DHT22;7466;53.574;9.976;2022-12-11T06:26:20;-2.10;99.90
14749;DHT22;7466;53.574;9.976;2022-12-11T06:28:48;-2.20;99.90
14749;DHT22;7466;53.574;9.976;2022-12-11T06:31:16;-2.20;99.90
14749;DHT22;7466;53.574;9.976;2022-12-11T06:33:43;-2.30;99.90
14749;DHT22;7466;53.574;9.976;2022-12-11T06:36:12;-2.30;99.90
14749;DHT22;7466;53.574;9.976;2022-12-11T06:38:40;-2.30;99.90
14749;DHT22;7466;53.574;9.976;2022-12-11T06:41:07;-2.40;99.90
14749;DHT22;7466;53.574;9.976;2022-12-11T06:43:35;-2.40;99.90
14749;DHT22;7466;53.574;9.976;2022-12-11T06:46:03;-2.40;99.90
14749;DHT22;7466;53.574;9.976;2022-12-11T06:48:30;-2.50;99.90
14749;DHT22;7466;53.574;9.976;2022-12-11T06:50:57;-2.50;99.90
14749;DHT22;7466;53.574;9.976;2022-12-11T06:53:25;-2.50;99.90
14749;DHT22;7466;53.574;9.976;2022-12-11T06:55:52;-2.60;99.90
14749;DHT22;7466;53.574;9.976;2022-12-11T06:58:18;-2.60;99.90
14749;DHT22;7466;53.574;9.976;2022-12-11T07:00:45;-2.50;99.90
14749;DHT22;7466;53.574;9.976;2022-12-11T07:03:15;-2.60;99.90
14749;DHT22;7466;53.574;9.976;2022-12-11T07:05:44;-2.60;99.90
14749;DHT22;7466;53.574;9.976;2022-12-11T07:08:11;-2.70;99.90
14749;DHT22;7466;53.574;9.976;2022-12-11T07:10:42;-2.70;99.90
14749;DHT22;7466;53.574;9.976;2022-12-11T07:13:09;-2.70;99.90
14749;DHT22;7466;53.574;9.976;2022-12-11T07:15:35;-2.70;99.90
14749;DHT22;7466;53.574;9.976;2022-12-11T07:18:02;-2.80;99.90
14749;DHT22;7466;53.574;9.976;2022-12-11T07:20:29;-2.80;99.90
14749;DHT22;7466;53.574;9.976;2022-12-11T07:22:56;-2.80;99.90
14749;DHT22;7466;53.574;9.976;2022-12-11T07:25:22;-2.90;99.90
14749;DHT22;7466;53.574;9.976;2022-12-11T07:27:51;-2.90;99.90
14749;DHT22;7466;53.574;9.976;2022-12-11T07:30:17;-2.90;99.90
14749;DHT22;7466;53.574;9.976;2022-12-11T07:32:44;-2.90;99.90
14749;DHT22;7466;53.574;9.976;2022-12-11T07:35:11;-2.90;99.90
14749;DHT22;7466;53.574;9.976;2022-12-11T07:37:39;-2.90;99.90
14749;DHT22;7466;53.574;9.976;2022-12-11T07:40:08;-2.90;99.90
14749;DHT22;7466;53.574;9.976;2022-12-11T07:42:35;-2.90;99.90
14749;DHT22;7466;53.574;9.976;2022-12-11T07:45:03;-2.90;99.90
14749;DHT22;7466;53.574;9.976;2022-12-11T07:47:32;-2.90;99.90
14749;DHT22;7466;53.574;9.976;2022-12-11T07:49:59;-2.80;99.90
14749;DHT22;7466;53.574;9.976;2022-12-11T07:52:26;-2.70;99.90
14749;DHT22;7466;53.574;9.976;2022-12-11T07:54:53;-2.70;99.90
14749;DHT22;7466;53.574;9.976;2022-12-11T07:57:20;-2.60;99.90
14749;DHT22;7466;53.574;9.976;2022-12-11T07:59:46;-2.60;99.90
14749;DHT22;7466;53.574;9.976;2022-12-11T08:02:14;-2.60;99.90
14749;DHT22;7466;53.574;9.976;2022-12-11T08:04:41;-2.60;99.90
14749;DHT22;7466;53.574;9.976;2022-12-11T08:07:09;-2.50;99.90
14749;DHT22;7466;53.574;9.976;2022-12-11T08:09:37;-2.50;99.90
14749;DHT22;7466;53.574;9.976;2022-12-11T08:12:04;-2.60;99.90
14749;DHT22;7466;53.574;9.976;2022-12-11T08:14:31;-2.60;99.90
14749;DHT22;7466;53.574;9.976;2022-12-11T08:16:58;-2.60;99.90
14749;DHT22;7466;53.574;9.976;2022-12-11T08:19:28;-2.60;99.90
14749;DHT22;7466;53.574;9.976;2022-12-11T08:21:55;-2.50;99.90
14749;DHT22;7466;53.574;9.976;2022-12-11T08:24:21;-2.50;99.90
14749;DHT22;7466;53.574;9.976;2022-12-11T08:26:48;-2.50;99.90
14749;DHT22;7466;53.574;9.976;2022-12-11T08:29:15;-2.50;99.90
14749;DHT22;7466;53.574;9.976;2022-12-11T08:31:42;-2.30;99.90
14749;DHT22;7466;53.574;9.976;2022-12-11T08:34:08;-2.30;99.90
14749;DHT22;7466;53.574;9.976;2022-12-11T08:36:39;-2.30;99.90
14749;DHT22;7466;53.574;9.976;2022-12-11T08:39:06;-2.30;99.90
14749;DHT22;7466;53.574;9.976;2022-12-11T08:41:33;-2.20;99.90
14749;DHT22;7466;53.574;9.976;2022-12-11T08:44:00;-2.20;99.90
14749;DHT22;7466;53.574;9.976;2022-12-11T08:46:28;-2.20;99.90
14749;DHT22;7466;53.574;9.976;2022-12-11T08:48:56;-2.20;99.90
14749;DHT22;7466;53.574;9.976;2022-12-11T08:51:24;-2.20;99.90
14749;DHT22;7466;53.574;9.976;2022-12-11T08:53:55;-2.10;99.90
14749;DHT22;7466;53.574;9.976;2022-12-11T08:56:23;-2.10;99.90
14749;DHT22;7466;53.574;9.976;2022-12-11T08:58:50;-2.10;99.90
14749;DHT22;7466;53.574;9.976;2022-12-11T09:01:20;-2.20;99.90
14749;DHT22;7466;53.574;9.976;2022-12-11T09:03:47;-2.20;99.90
14749;DHT22;7466;53.574;9.976;2022-12-11T09:06:16;-2.20;99.90
14749;DHT22;7466;53.574;9.976;2022-12-11T09:08:45;-2.20;99.90
14749;DHT22;7466;53.574;9.976;2022-12-11T09:11:15;-2.20;99.90
14749;DHT22;7466;53.574;9.976;2022-12-11T09:13:44;-2.20;99.90
14749;DHT22;7466;53.574;9.976;2022-12-11T09:16:14;-2.20;99.90
14749;DHT22;7466;53.574;9.976;2022-12-11T09:18:41;-2.20;99.90
14749;DHT22;7466;53.574;9.976;2022-12-11T09:21:11;-2.20;99.90
14749;DHT22;7466;53.574;9.976;2022-12-11T09:23:38;-2.20;99.90
14749;DHT22;7466;53.574;9.976;2022-12-11T09:26:06;-2.10;99.90
14749;DHT22;7466;53.574;9.976;2022-12-11T09:28:34;-2.10;99.90
14749;DHT22;7466;53.574;9.976;2022-12-11T09:31:06;-2.00;99.90
14749;DHT22;7466;53.574;9.976;2022-12-11T09:33:33;-2.00;99.90
14749;DHT22;7466;53.574;9.976;2022-12-11T09:36:00;-1.90;99.90
14749;DHT22;7466;53.574;9.976;2022-12-11T09:38:28;-1.90;99.90
14749;DHT22;7466;53.574;9.976;2022-12-11T09:40:55;-1.90;99.90
14749;DHT22;7466;53.574;9.976;2022-12-11T09:43:32;-1.90;99.90
14749;DHT22;7466;53.574;9.976;2022-12-11T09:46:05;-1.80;99.90
14749;DHT22;7466;53.574;9.976;2022-12-11T09:48:33;-1.70;99.90
14749;DHT22;7466;53.574;9.976;2022-12-11T09:51:07;-1.60;99.90
14749;DHT22;7466;53.574;9.976;2022-12-11T09:53:37;-1.60;99.90
14749;DHT22;7466;53.574;9.976;2022-12-11T09:56:08;-1.60;99.90
14749;DHT22;7466;53.574;9.976;2022-12-11T09:58:50;-1.40;99.90
14749;DHT22;7466;53.574;9.976;2022-12-11T10:01:28;-1.50;99.90
14749;DHT22;7466;53.574;9.976;2022-12-11T10:04:17;-1.30;99.90
14749;DHT22;7466;53.574;9.976;2022-12-11T10:06:59;-1.30;99.90
14749;DHT22;7466;53.574;9.976;2022-12-11T10:09:33;-1.30;99.90
14749;DHT22;7466;53.574;9.976;2022-12-11T10:12:11;-1.20;99.90
14749;DHT22;7466;53.574;9.976;2022-12-11T10:14:49;-1.10;99.90
14749;DHT22;7466;53.574;9.976;2022-12-11T10:17:24;-1.10;99.90
14749;DHT22;7466;53.574;9.976;2022-12-11T10:19:54;-1.10;99.90
14749;DHT22;7466;53.574;9.976;2022-12-11T10:22:25;-1.10;99.90
14749;DHT22;7466;53.574;9.976;2022-12-11T10:24:55;-1.20;99.90
14749;DHT22;7466;53.574;9.976;2022-12-11T10:27:27;-1.20;99.90
14749;DHT22;7466;53.574;9.976;2022-12-11T10:30:00;-1.10;99.90
14749;DHT22;7466;53.574;9.976;2022-12-11T10:32:37;-1.00;99.90
14749;DHT22;7466;53.574;9.976;2022-12-11T10:35:06;-0.90;99.90
14749;DHT22;7466;53.574;9.976;2022-12-11T10:37:33;-0.80;99.90
14749;DHT22;7466;53.574;9.976;2022-12-11T10:40:00;-0.70;99.90
14749;DHT22;7466;53.574;9.976;2022-12-11T10:42:26;-0.60;99.90
14749;DHT22;7466;53.574;9.976;2022-12-11T10:44:58;-0.40;99.90
14749;DHT22;7466;53.574;9.976;2022-12-11T10:47:26;-0.40;99.90
14749;DHT22;7466;53.574;9.976;2022-12-11T10:49:56;-0.30;99.90
14749;DHT22;7466;53.574;9.976;2022-12-11T10:52:25;-0.40;99.90
14749;DHT22;7466;53.574;9.976;2022-12-11T10:54:56;-0.40;99.90
14749;DHT22;7466;53.574;9.976;2022-12-11T10:57:28;-0.30;21.70
14749;DHT22;7466;53.574;9.976;2022-12-11T10:59:55;0.00;1.00
14749;DHT22;7466;53.574;9.976;2022-12-11T11:02:24;-0.10;1.00
14749;DHT22;7466;53.574;9.976;2022-12-11T11:04:54;0.10;1.00
14749;DHT22;7466;53.574;9.976;2022-12-11T11:07:23;0.30;1.00
14749;DHT22;7466;53.574;9.976;2022-12-11T11:10:02;0.70;1.00
14749;DHT22;7466;53.574;9.976;2022-12-11T11:12:29;0.70;1.00
14749;DHT22;7466;53.574;9.976;2022-12-11T11:14:59;1.30;1.00
14749;DHT22;7466;53.574;9.976;2022-12-11T11:17:27;0.80;1.00
14749;DHT22;7466;53.574;9.976;2022-12-11T11:19:55;0.70;1.00
14749;DHT22;7466;53.574;9.976;2022-12-11T11:22:24;0.70;1.00
14749;DHT22;7466;53.574;9.976;2022-12-11T11:24:55;0.70;1.00
14749;DHT22;7466;53.574;9.976;2022-12-11T11:27:27;0.20;1.00
14749;DHT22;7466;53.574;9.976;2022-12-11T11:29:57;-0.10;1.00
14749;DHT22;7466;53.574;9.976;2022-12-11T11:32:30;-0.20;1.00
14749;DHT22;7466;53.574;9.976;2022-12-11T11:35:17;-0.40;1.00
14749;DHT22;7466;53.574;9.976;2022-12-11T11:37:46;-0.40;1.00
14749;DHT22;7466;53.574;9.976;2022-12-11T11:40:21;-0.40;1.00
14749;DHT22;7466;53.574;9.976;2022-12-11T11:42:59;-0.50;1.00
14749;DHT22;7466;53.574;9.976;2022-12-11T11:45:31;-0.60;1.00
14749;DHT22;7466;53.574;9.976;2022-12-11T11:48:09;-0.60;1.00
14749;DHT22;7466;53.574;9.976;2022-12-11T11:50:43;-0.60;1.00
14749;DHT22;7466;53.574;9.976;2022-12-11T11:53:15;-0.60;1.00
14749;DHT22;7466;53.574;9.976;2022-12-11T11:55:50;-0.60;1.00
14749;DHT22;7466;53.574;9.976;2022-12-11T11:58:23;-0.60;1.00
14749;DHT22;7466;53.574;9.976;2022-12-11T12:00:53;-0.60;1.00
14749;DHT22;7466;53.574;9.976;2022-12-11T12:03:22;-0.60;1.00
14749;DHT22;7466;53.574;9.976;2022-12-11T12:05:56;-0.70;1.00
14749;DHT22;7466;53.574;9.976;2022-12-11T12:08:38;-0.70;1.00
14749;DHT22;7466;53.574;9.976;2022-12-11T12:11:14;-0.70;1.00
14749;DHT22;7466;53.574;9.976;2022-12-11T12:13:50;-0.70;1.00
14749;DHT22;7466;53.574;9.976;2022-12-11T12:16:31;-0.80;1.00
14749;DHT22;7466;53.574;9.976;2022-12-11T12:19:10;-0.70;1.00
14749;DHT22;7466;53.574;9.976;2022-12-11T12:21:43;-0.70;1.00
14749;DHT22;7466;53.574;9.976;2022-12-11T12:24:19;-0.60;1.00
14749;DHT22;7466;53.574;9.976;2022-12-11T12:26:54;-0.60;1.00
14749;DHT22;7466;53.574;9.976;2022-12-11T12:29:29;-0.50;1.00
14749;DHT22;7466;53.574;9.976;2022-12-11T12:32:08;-0.60;1.00
14749;DHT22;7466;53.574;9.976;2022-12-11T12:34:47;-0.50;1.00
14749;DHT22;7466;53.574;9.976;2022-12-11T12:37:24;-0.50;1.00
14749;DHT22;7466;53.574;9.976;2022-12-11T12:40:00;-0.40;1.00
14749;DHT22;7466;53.574;9.976;2022-12-11T12:42:36;-0.40;1.00
14749;DHT22;7466;53.574;9.976;2022-12-11T12:45:15;-0.30;1.00
14749;DHT22;7466;53.574;9.976;2022-12-11T12:47:45;-0.30;1.00
14749;DHT22;7466;53.574;9.976;2022-12-11T12:50:15;-0.20;1.00
14749;DHT22;7466;53.574;9.976;2022-12-11T12:52:45;-0.10;1.00
14749;DHT22;7466;53.574;9.976;2022-12-11T12:55:21;0.10;1.00
14749;DHT22;7466;53.574;9.976;2022-12-11T12:57:50;0.30;1.00
14749;DHT22;7466;53.574;9.976;2022-12-11T13:00:30;0.80;1.00
14749;DHT22;7466;53.574;9.976;2022-12-11T13:02:58;1.20;1.00
14749;DHT22;7466;53.574;9.976;2022-12-11T13:05:28;1.20;1.00
14749;DHT22;7466;53.574;9.976;2022-12-11T13:07:59;1.10;1.00
14749;DHT22;7466;53.574;9.976;2022-12-11T13:10:33;1.00;1.00
14749;DHT22;7466;53.574;9.976;2022-12-11T13:13:02;0.90;1.00
14749;DHT22;7466;53.574;9.976;2022-12-11T13:15:35;1.10;1.00
14749;DHT22;7466;53.574;9.976;2022-12-11T13:18:29;0.90;1.00
14749;DHT22;7466;53.574;9.976;2022-12-11T13:20:56;0.90;1.00
14749;DHT22;7466;53.574;9.976;2022-12-11T13:23:29;0.90;1.00
14749;DHT22;7466;53.574;9.976;2022-12-11T13:25:58;0.80;1.00
14749;DHT22;7466;53.574;9.976;2022-12-11T13:28:28;1.00;1.00
14749;DHT22;7466;53.574;9.976;2022-12-11T13:31:04;0.70;1.00
14749;DHT22;7466;53.574;9.976;2022-12-11T13:33:36;0.90;1.00
14749;DHT22;7466;53.574;9.976;2022-12-11T13:36:26;0.80;1.00
14749;DHT22;7466;53.574;9.976;2022-12-11T13:38:58;1.00;1.00
14749;DHT22;7466;53.574;9.976;2022-12-11T13:41:26;0.90;1.00
14749;DHT22;7466;53.574;9.976;2022-12-11T13:43:54;0.60;1.00
14749;DHT22;7466;53.574;9.976;2022-12-11T13:46:26;0.60;1.00
14749;DHT22;7466;53.574;9.976;2022-12-11T13:48:55;0.60;1.00
14749;DHT22;7466;53.574;9.976;2022-12-11T13:51:26;0.70;1.00
14749;DHT22;7466;53.574;9.976;2022-12-11T13:54:14;0.50;1.00
14749;DHT22;7466;53.574;9.976;2022-12-11T13:56:56;0.40;1.00
14749;DHT22;7466;53.574;9.976;2022-12-11T13:59:26;0.40;1.00
14749;DHT22;7466;53.574;9.976;2022-12-11T14:01:55;0.30;1.00
14749;DHT22;7466;53.574;9.976;2022-12-11T14:04:24;0.20;1.00
14749;DHT22;7466;53.574;9.976;2022-12-11T14:06:52;0.20;1.00
14749;DHT22;7466;53.574;9.976;2022-12-11T14:09:23;0.20;1.00
14749;DHT22;7466;53.574;9.976;2022-12-11T14:11:52;0.30;1.00
14749;DHT22;7466;53.574;9.976;2022-12-11T14:14:26;0.20;1.00
14749;DHT22;7466;53.574;9.976;2022-12-11T14:16:55;0.20;1.00
14749;DHT22;7466;53.574;9.976;2022-12-11T14:19:23;0.10;1.00
14749;DHT22;7466;53.574;9.976;2022-12-11T14:21:55;0.10;1.00
14749;DHT22;7466;53.574;9.976;2022-12-11T14:24:23;0.00;1.00
14749;DHT22;7466;53.574;9.976;2022-12-11T14:26:51;-0.10;1.00
14749;DHT22;7466;53.574;9.976;2022-12-11T14:29:29;-0.20;1.00
14749;DHT22;7466;53.574;9.976;2022-12-11T14:31:59;-0.20;1.00
14749;DHT22;7466;53.574;9.976;2022-12-11T14:34:30;-0.30;1.00
14749;DHT22;7466;53.574;9.976;2022-12-11T14:36:58;-0.40;1.00
14749;DHT22;7466;53.574;9.976;2022-12-11T14:39:31;-0.50;1.00
14749;DHT22;7466;53.574;9.976;2022-12-11T14:42:02;-0.50;1.00
14749;DHT22;7466;53.574;9.976;2022-12-11T14:44:38;-0.60;1.00
14749;DHT22;7466;53.574;9.976;2022-12-11T14:47:12;-0.60;1.00
14749;DHT22;7466;53.574;9.976;2022-12-11T14:49:45;-0.70;1.00
14749;DHT22;7466;53.574;9.976;2022-12-11T14:52:16;-0.70;1.00
14749;DHT22;7466;53.574;9.976;2022-12-11T14:54:48;-0.70;1.00
14749;DHT22;7466;53.574;9.976;2022-12-11T14:57:19;-0.70;1.00
14749;DHT22;7466;53.574;9.976;2022-12-11T14:59:47;-0.70;3.50
14749;DHT22;7466;53.574;9.976;2022-12-11T15:02:28;-0.70;6.40
14749;DHT22;7466;53.574;9.976;2022-12-11T15:05:12;-0.70;9.60
14749;DHT22;7466;53.574;9.976;2022-12-11T15:07:41;-0.70;10.20
14749;DHT22;7466;53.574;9.976;2022-12-11T15:10:25;-0.70;10.60
14749;DHT22;7466;53.574;9.976;2022-12-11T15:12:56;-0.70;12.60
14749;DHT22;7466;53.574;9.976;2022-12-11T15:15:23;-0.70;15.50
14749;DHT22;7466;53.574;9.976;2022-12-11T15:17:50;-0.70;15.90
14749;DHT22;7466;53.574;9.976;2022-12-11T15:20:23;-0.70;15.40
14749;DHT22;7466;53.574;9.976;2022-12-11T15:22:51;-0.70;16.30
14749;DHT22;7466;53.574;9.976;2022-12-11T15:25:22;-0.70;14.90
14749;DHT22;7466;53.574;9.976;2022-12-11T15:27:50;-0.60;14.60
14749;DHT22;7466;53.574;9.976;2022-12-11T15:30:26;-0.60;11.70
14749;DHT22;7466;53.574;9.976;2022-12-11T15:33:18;-0.70;8.10
14749;DHT22;7466;53.574;9.976;2022-12-11T15:35:58;-0.70;8.40
14749;DHT22;7466;53.574;9.976;2022-12-11T15:38:31;-0.70;8.50
14749;DHT22;7466;53.574;9.976;2022-12-11T15:41:00;-0.70;8.10
14749;DHT22;7466;53.574;9.976;2022-12-11T15:43:29;-0.70;10.70
14749;DHT22;7466;53.574;9.976;2022-12-11T15:45:56;-0.70;11.50
14749;DHT22;7466;53.574;9.976;2022-12-11T15:48:23;-0.70;12.10
14749;DHT22;7466;53.574;9.976;2022-12-11T15:50:50;-0.70;14.30
14749;DHT22;7466;53.574;9.976;2022-12-11T15:53:17;-0.70;13.00
14749;DHT22;7466;53.574;9.976;2022-12-11T15:55:44;-0.70;12.90
14749;DHT22;7466;53.574;9.976;2022-12-11T15:58:16;-0.70;13.90
14749;DHT22;7466;53.574;9.976;2022-12-11T16:00:44;-0.70;14.20
14749;DHT22;7466;53.574;9.976;2022-12-11T16:03:12;-0.70;15.30
14749;DHT22;7466;53.574;9.976;2022-12-11T16:05:40;-0.70;17.30
14749;DHT22;7466;53.574;9.976;2022-12-11T16:08:08;-0.80;20.00
14749;DHT22;7466;53.574;9.976;2022-12-11T16:10:39;-0.80;22.00
14749;DHT22;7466;53.574;9.976;2022-12-11T16:13:06;-0.80;19.80
14749;DHT22;7466;53.574;9.976;2022-12-11T16:15:36;-0.80;20.00